< Typhoon 197720 1977 Season Typhoon 197801 >
Typhoon 197721 (MARY)
General InformationTrack Information on Google MapsDetailed Wind Information || Disaster Info.ResourceGoogle EarthGE AnimationAtom FeedGeoJSON
Detalied Best Track (Time Zone = UTC)
Year Month Day Hour Lat. Long. Pressure (hPa) Wind (kt) Class Image Chart
1977 12 18 06 5.0 171.0 1004 0 2 -- Chart
1977 12 18 12 6.0 173.0 1004 0 2 -- Chart
1977 12 18 18 7.0 175.0 1004 0 2 -- Chart
1977 12 19 00 8.0 177.0 1004 0 2 -- Chart
1977 12 19 06 8.5 177.5 1004 0 2 -- Chart
1977 12 19 12 8.7 177.7 1004 0 2 -- Chart
1977 12 19 18 8.8 178.0 1000 0 2 -- Chart
1977 12 20 00 9.0 178.2 996 0 2 -- Chart
1977 12 20 06 9.2 178.3 996 0 2 -- Chart
1977 12 20 12 9.3 178.5 994 0 2 -- Chart
1977 12 20 18 9.5 178.7 992 0 2 -- Chart
1977 12 21 00 9.8 178.8 990 40 3 -- Chart
1977 12 21 06 10.0 178.6 990 40 3 -- Chart
1977 12 21 12 10.1 178.0 990 40 3 -- Chart
1977 12 21 18 10.3 177.3 990 40 3 -- Chart
1977 12 22 00 10.6 176.5 990 40 3 -- Chart
1977 12 22 06 10.8 175.7 990 45 3 -- Chart
1977 12 22 12 10.9 174.7 985 50 4 -- Chart
1977 12 22 18 11.1 173.8 980 50 4 -- Chart
1977 12 23 00 11.2 173.0 975 65 5 -- Chart
1977 12 23 06 11.5 172.3 970 70 5 -- Chart
1977 12 23 12 11.8 171.5 970 70 5 -- Chart
1977 12 23 18 12.1 170.8 965 70 5 -- Chart
1977 12 24 00 12.5 170.0 965 80 5 -- Chart
1977 12 24 06 12.6 169.7 960 80 5 -- Chart
1977 12 24 12 12.4 169.6 955 70 5 -- Chart
1977 12 24 18 12.3 169.5 950 70 5 -- Chart
1977 12 25 00 12.2 169.4 945 70 5 -- Chart
1977 12 25 06 11.6 169.0 945 85 5 -- Chart
1977 12 25 12 11.2 168.6 955 85 5 -- Chart
1977 12 25 18 10.8 168.1 960 80 5 -- Chart
1977 12 26 00 10.5 167.5 965 70 5 -- Chart
1977 12 26 06 9.9 166.2 970 65 5 -- Chart
1977 12 26 12 9.5 164.8 980 65 5 -- Chart
1977 12 26 18 9.2 163.2 985 60 4 -- Chart
1977 12 27 00 9.0 161.3 985 60 4 -- Chart
1977 12 27 06 8.9 159.6 990 50 4 -- Chart
1977 12 27 12 8.8 157.5 990 50 4 -- Chart
1977 12 27 18 8.7 155.3 994 45 3 -- Chart
1977 12 28 00 9.3 153.5 994 45 3 -- Chart
1977 12 28 06 10.0 152.0 996 40 3 -- Chart
1977 12 28 12 10.6 151.0 992 40 3 -- Chart
1977 12 28 18 11.2 149.7 992 45 3 -- Chart
1977 12 29 00 11.3 148.3 990 50 4 -- Chart
1977 12 29 06 11.1 147.0 980 55 4 -- Chart
1977 12 29 12 11.1 145.3 980 55 4 -- Chart
1977 12 29 18 10.8 144.1 975 55 4 -- Chart
1977 12 30 00 10.6 142.8 980 55 4 -- Chart
1977 12 30 06 10.3 141.5 985 55 4 -- Chart
1977 12 30 12 10.3 140.3 985 55 4 -- Chart
1977 12 30 18 10.1 138.8 990 50 4 -- Chart
1977 12 31 00 10.0 137.3 996 50 4 -- Chart
1977 12 31 06 9.7 136.3 1000 45 3 -- Chart
1977 12 31 12 9.1 135.0 998 45 3 -- Chart
1977 12 31 18 9.2 133.0 996 35 3 -- Chart
1978 1 1 00 9.7 131.6 996 35 3 -- Chart
1978 1 1 06 10.0 130.4 992 40 3 -- Chart
1978 1 1 12 10.0 128.8 992 45 3 -- Chart
1978 1 1 18 10.0 127.2 992 45 3 -- Chart
1978 1 2 00 10.3 126.5 998 40 3 -- Chart
1978 1 2 06 10.4 125.5 1002 40 3 -- Chart
1978 1 2 12 10.7 124.5 1004 40 3 -- Chart
1978 1 2 18 11.0 123.5 1008 0 2 -- Chart
1978 1 3 00 11.0 123.0 1010 0 2 -- Chart
1978 1 3 06 10.5 123.0 1010 0 2 -- Chart
1978 1 3 12 10.0 124.0 1012 0 2 -- Chart
Japan Meteorological Agency Best Track Data | Correction Date : 1992-10-21
< Typhoon 197720 1977 Season Typhoon 197801 >

Help